Terminal Aerodrome Forecast
Issued by NWS

Home | Current Version | Previous Version | Text Only | Print | Product List | Glossary On
Versions: 1 2 3 4 5 6 7 8 9 10 11 12 13 14 15 16 17 18 19 20 21 22 23 24 25
204
FTUS43 KGRB 210234 AAA
TAFMTW
TAF AMD
KMTW 210234Z 2103/2124 14016G28KT 6SM -RA OVC060 WS012/17050KT
     FM210400 17014G23KT 3SM -RA BR OVC040 WS017/18055KT
     FM210800 22009KT 3SM BR BKN008
     FM211200 25007KT 3SM BR BKN005
     FM211500 27007KT P6SM SCT008 BKN250
     FM211700 26008KT P6SM FEW250=

USA.gov is the U.S. government's official web portal to all federal, state and local government web resources and services.